sensor_id;sensor_type;location;lat;lon;timestamp;pressure;altitude;pressure_sealevel;temperature;humidity
41260;BME280;26993;48.958;9.330;2022-07-29T00:00:54;98257.94;;;18.32;95.37
41260;BME280;26993;48.958;9.330;2022-07-29T00:03:41;98261.06;;;18.42;94.45
41260;BME280;26993;48.958;9.330;2022-07-29T00:06:28;98251.19;;;18.27;94.97
41260;BME280;26993;48.958;9.330;2022-07-29T00:09:14;98257.22;;;18.03;96.42
41260;BME280;26993;48.958;9.330;2022-07-29T00:12:03;98246.22;;;17.95;96.59
41260;BME280;26993;48.958;9.330;2022-07-29T00:14:51;98244.22;;;17.76;98.07
41260;BME280;26993;48.958;9.330;2022-07-29T00:17:38;98249.41;;;17.76;98.29
41260;BME280;26993;48.958;9.330;2022-07-29T00:20:25;98237.03;;;17.83;97.95
41260;BME280;26993;48.958;9.330;2022-07-29T00:23:11;98239.06;;;17.75;97.58
41260;BME280;26993;48.958;9.330;2022-07-29T00:25:58;98237.47;;;17.71;98.33
41260;BME280;26993;48.958;9.330;2022-07-29T00:28:46;98227.91;;;17.71;97.58
41260;BME280;26993;48.958;9.330;2022-07-29T00:31:33;98226.84;;;17.77;97.39
41260;BME280;26993;48.958;9.330;2022-07-29T00:34:20;98229.44;;;17.77;97.58
41260;BME280;26993;48.958;9.330;2022-07-29T00:37:24;98219.97;;;17.74;98.13
41260;BME280;26993;48.958;9.330;2022-07-29T00:40:11;98222.06;;;17.65;97.81
41260;BME280;26993;48.958;9.330;2022-07-29T00:42:58;98213.88;;;17.75;96.97
41260;BME280;26993;48.958;9.330;2022-07-29T00:45:46;98214.63;;;17.52;98.56
41260;BME280;26993;48.958;9.330;2022-07-29T00:48:33;98207.50;;;17.57;98.87
41260;BME280;26993;48.958;9.330;2022-07-29T00:51:19;98208.47;;;17.55;99.33
41260;BME280;26993;48.958;9.330;2022-07-29T00:54:07;98206.06;;;17.75;97.87
41260;BME280;26993;48.958;9.330;2022-07-29T00:56:54;98201.63;;;17.77;97.51
41260;BME280;26993;48.958;9.330;2022-07-29T00:59:41;98204.50;;;17.70;97.72
41260;BME280;26993;48.958;9.330;2022-07-29T01:02:29;98201.91;;;17.70;97.87
41260;BME280;26993;48.958;9.330;2022-07-29T01:05:18;98206.44;;;17.65;98.26
41260;BME280;26993;48.958;9.330;2022-07-29T01:08:05;98205.56;;;17.64;97.56
41260;BME280;26993;48.958;9.330;2022-07-29T01:10:53;98203.75;;;17.66;97.35
41260;BME280;26993;48.958;9.330;2022-07-29T01:13:41;98201.91;;;17.70;97.48
41260;BME280;26993;48.958;9.330;2022-07-29T01:16:32;98201.09;;;17.68;97.23
41260;BME280;26993;48.958;9.330;2022-07-29T01:19:40;98205.88;;;17.55;97.74
41260;BME280;26993;48.958;9.330;2022-07-29T01:25:53;98208.81;;;17.71;96.76
41260;BME280;26993;48.958;9.330;2022-07-29T01:29:01;98201.22;;;17.65;97.08
41260;BME280;26993;48.958;9.330;2022-07-29T01:31:51;98204.06;;;17.57;97.20
41260;BME280;26993;48.958;9.330;2022-07-29T01:34:45;98201.53;;;17.55;96.61
41260;BME280;26993;48.958;9.330;2022-07-29T01:37:39;98197.44;;;17.48;97.05
41260;BME280;26993;48.958;9.330;2022-07-29T01:40:33;98199.16;;;17.48;96.89
41260;BME280;26993;48.958;9.330;2022-07-29T01:43:25;98192.16;;;17.50;96.85
41260;BME280;26993;48.958;9.330;2022-07-29T01:46:19;98190.66;;;17.42;97.10
41260;BME280;26993;48.958;9.330;2022-07-29T01:49:11;98187.47;;;17.34;96.88
41260;BME280;26993;48.958;9.330;2022-07-29T01:52:03;98187.41;;;17.36;97.11
41260;BME280;26993;48.958;9.330;2022-07-29T01:54:54;98190.75;;;17.39;96.51
41260;BME280;26993;48.958;9.330;2022-07-29T01:57:45;98192.81;;;17.29;96.77
41260;BME280;26993;48.958;9.330;2022-07-29T02:00:34;98194.78;;;17.23;97.11
41260;BME280;26993;48.958;9.330;2022-07-29T02:03:23;98199.41;;;17.15;98.12
41260;BME280;26993;48.958;9.330;2022-07-29T02:06:10;98189.19;;;17.08;98.91
41260;BME280;26993;48.958;9.330;2022-07-29T02:08:58;98192.69;;;17.34;97.88
41260;BME280;26993;48.958;9.330;2022-07-29T02:11:49;98187.44;;;17.09;99.09
41260;BME280;26993;48.958;9.330;2022-07-29T02:14:39;98186.19;;;16.94;99.95
41260;BME280;26993;48.958;9.330;2022-07-29T02:17:31;98182.53;;;17.26;97.72
41260;BME280;26993;48.958;9.330;2022-07-29T02:20:22;98184.47;;;17.20;97.82
41260;BME280;26993;48.958;9.330;2022-07-29T02:23:10;98188.88;;;17.18;97.83
41260;BME280;26993;48.958;9.330;2022-07-29T02:25:59;98188.13;;;16.86;99.79
41260;BME280;26993;48.958;9.330;2022-07-29T02:28:46;98191.44;;;16.91;99.87
41260;BME280;26993;48.958;9.330;2022-07-29T02:31:34;98188.72;;;16.95;98.86
41260;BME280;26993;48.958;9.330;2022-07-29T02:34:23;98182.34;;;16.76;100.00
41260;BME280;26993;48.958;9.330;2022-07-29T02:37:12;98195.22;;;16.80;100.00
41260;BME280;26993;48.958;9.330;2022-07-29T02:40:01;98195.09;;;16.85;99.56
41260;BME280;26993;48.958;9.330;2022-07-29T02:42:48;98189.88;;;16.85;99.69
41260;BME280;26993;48.958;9.330;2022-07-29T02:45:36;98193.75;;;16.72;100.00
41260;BME280;26993;48.958;9.330;2022-07-29T02:48:37;98185.34;;;16.63;100.00
41260;BME280;26993;48.958;9.330;2022-07-29T02:51:28;98188.75;;;16.65;100.00
41260;BME280;26993;48.958;9.330;2022-07-29T02:54:31;98180.34;;;16.57;100.00
41260;BME280;26993;48.958;9.330;2022-07-29T02:57:30;98181.22;;;16.56;100.00
41260;BME280;26993;48.958;9.330;2022-07-29T03:00:18;98176.78;;;16.60;100.00
41260;BME280;26993;48.958;9.330;2022-07-29T03:03:09;98181.28;;;16.55;100.00
41260;BME280;26993;48.958;9.330;2022-07-29T03:05:58;98186.00;;;16.42;100.00
41260;BME280;26993;48.958;9.330;2022-07-29T03:08:46;98173.66;;;16.48;100.00
41260;BME280;26993;48.958;9.330;2022-07-29T03:11:35;98173.03;;;16.40;100.00
41260;BME280;26993;48.958;9.330;2022-07-29T03:14:23;98171.84;;;16.50;100.00
41260;BME280;26993;48.958;9.330;2022-07-29T03:17:11;98185.34;;;16.33;100.00
41260;BME280;26993;48.958;9.330;2022-07-29T03:19:58;98188.00;;;16.32;100.00
41260;BME280;26993;48.958;9.330;2022-07-29T03:22:45;98180.84;;;16.40;100.00
41260;BME280;26993;48.958;9.330;2022-07-29T03:25:33;98182.88;;;16.30;100.00
41260;BME280;26993;48.958;9.330;2022-07-29T03:28:21;98178.59;;;16.28;100.00
41260;BME280;26993;48.958;9.330;2022-07-29T03:31:08;98174.91;;;16.35;100.00
41260;BME280;26993;48.958;9.330;2022-07-29T03:33:55;98174.88;;;16.37;100.00
41260;BME280;26993;48.958;9.330;2022-07-29T03:36:42;98186.25;;;16.32;100.00
41260;BME280;26993;48.958;9.330;2022-07-29T03:39:32;98180.47;;;16.23;100.00
41260;BME280;26993;48.958;9.330;2022-07-29T03:42:20;98179.53;;;16.25;100.00
41260;BME280;26993;48.958;9.330;2022-07-29T03:45:14;98185.31;;;16.35;100.00
41260;BME280;26993;48.958;9.330;2022-07-29T03:48:07;98185.84;;;16.46;100.00
41260;BME280;26993;48.958;9.330;2022-07-29T03:50:55;98191.44;;;16.34;100.00
41260;BME280;26993;48.958;9.330;2022-07-29T03:53:42;98188.19;;;16.26;100.00
41260;BME280;26993;48.958;9.330;2022-07-29T03:56:29;98196.97;;;16.22;100.00
41260;BME280;26993;48.958;9.330;2022-07-29T03:59:19;98189.28;;;16.17;100.00
41260;BME280;26993;48.958;9.330;2022-07-29T04:02:10;98199.03;;;16.10;100.00
41260;BME280;26993;48.958;9.330;2022-07-29T04:04:58;98193.78;;;16.12;100.00
41260;BME280;26993;48.958;9.330;2022-07-29T04:07:46;98186.25;;;16.32;100.00
41260;BME280;26993;48.958;9.330;2022-07-29T04:10:33;98189.91;;;16.27;100.00
41260;BME280;26993;48.958;9.330;2022-07-29T04:13:20;98190.47;;;16.37;100.00
41260;BME280;26993;48.958;9.330;2022-07-29T04:16:07;98197.66;;;16.28;100.00
41260;BME280;26993;48.958;9.330;2022-07-29T04:18:55;98193.59;;;16.48;100.00
41260;BME280;26993;48.958;9.330;2022-07-29T04:21:41;98190.38;;;16.40;100.00
41260;BME280;26993;48.958;9.330;2022-07-29T04:24:30;98197.53;;;16.31;100.00
41260;BME280;26993;48.958;9.330;2022-07-29T04:27:17;98196.44;;;16.40;100.00
41260;BME280;26993;48.958;9.330;2022-07-29T04:30:04;98196.75;;;16.59;100.00
41260;BME280;26993;48.958;9.330;2022-07-29T04:32:51;98192.25;;;16.64;100.00
41260;BME280;26993;48.958;9.330;2022-07-29T04:35:39;98194.94;;;16.61;100.00
41260;BME280;26993;48.958;9.330;2022-07-29T04:38:26;98201.19;;;16.56;100.00
41260;BME280;26993;48.958;9.330;2022-07-29T04:41:13;98200.28;;;16.57;100.00
41260;BME280;26993;48.958;9.330;2022-07-29T04:44:00;98205.75;;;16.77;100.00
41260;BME280;26993;48.958;9.330;2022-07-29T04:46:50;98201.09;;;16.87;100.00
41260;BME280;26993;48.958;9.330;2022-07-29T04:49:37;98199.84;;;17.01;100.00
41260;BME280;26993;48.958;9.330;2022-07-29T04:52:26;98200.53;;;17.06;100.00
41260;BME280;26993;48.958;9.330;2022-07-29T04:55:13;98198.78;;;17.06;100.00
41260;BME280;26993;48.958;9.330;2022-07-29T04:57:59;98199.34;;;17.16;100.00
41260;BME280;26993;48.958;9.330;2022-07-29T05:00:46;98201.53;;;17.28;100.00
41260;BME280;26993;48.958;9.330;2022-07-29T05:03:33;98203.00;;;17.37;100.00
41260;BME280;26993;48.958;9.330;2022-07-29T05:06:19;98197.53;;;17.45;99.50
41260;BME280;26993;48.958;9.330;2022-07-29T05:09:07;98201.16;;;17.66;98.40
41260;BME280;26993;48.958;9.330;2022-07-29T05:11:54;98200.03;;;17.73;96.88
41260;BME280;26993;48.958;9.330;2022-07-29T05:14:41;98199.00;;;17.77;96.20
41260;BME280;26993;48.958;9.330;2022-07-29T05:17:27;98198.41;;;17.95;95.58
41260;BME280;26993;48.958;9.330;2022-07-29T05:20:14;98193.81;;;18.03;95.36
41260;BME280;26993;48.958;9.330;2022-07-29T05:23:01;98196.59;;;18.22;94.39
41260;BME280;26993;48.958;9.330;2022-07-29T05:25:50;98196.50;;;18.25;94.43
41260;BME280;26993;48.958;9.330;2022-07-29T05:28:36;98201.81;;;18.22;94.53
41260;BME280;26993;48.958;9.330;2022-07-29T05:31:23;98197.81;;;18.37;93.58
41260;BME280;26993;48.958;9.330;2022-07-29T05:34:10;98197.56;;;18.43;93.29
41260;BME280;26993;48.958;9.330;2022-07-29T05:36:57;98202.13;;;18.38;93.01
41260;BME280;26993;48.958;9.330;2022-07-29T05:39:43;98201.03;;;19.32;90.11
41260;BME280;26993;48.958;9.330;2022-07-29T05:42:32;98189.81;;;22.12;77.47
41260;BME280;26993;48.958;9.330;2022-07-29T05:45:19;98185.94;;;24.20;69.55
41260;BME280;26993;48.958;9.330;2022-07-29T05:48:05;98188.75;;;25.42;65.79
41260;BME280;26993;48.958;9.330;2022-07-29T05:50:52;98201.91;;;25.42;65.63
41260;BME280;26993;48.958;9.330;2022-07-29T05:53:39;98197.44;;;26.22;63.60
41260;BME280;26993;48.958;9.330;2022-07-29T05:56:26;98196.72;;;27.18;61.24
41260;BME280;26993;48.958;9.330;2022-07-29T05:59:14;98213.06;;;25.73;63.65
41260;BME280;26993;48.958;9.330;2022-07-29T06:02:01;98219.25;;;23.90;68.89
41260;BME280;26993;48.958;9.330;2022-07-29T06:04:48;98224.91;;;23.07;72.72
41260;BME280;26993;48.958;9.330;2022-07-29T06:07:35;98222.38;;;22.90;73.65
41260;BME280;26993;48.958;9.330;2022-07-29T06:10:21;98229.19;;;22.78;74.74
41260;BME280;26993;48.958;9.330;2022-07-29T06:13:08;98231.88;;;22.44;75.13
41260;BME280;26993;48.958;9.330;2022-07-29T06:15:56;98233.97;;;21.86;78.16
41260;BME280;26993;48.958;9.330;2022-07-29T06:18:43;98238.38;;;21.68;78.68
41260;BME280;26993;48.958;9.330;2022-07-29T06:21:30;98226.72;;;21.92;78.94
41260;BME280;26993;48.958;9.330;2022-07-29T06:24:16;98237.44;;;21.87;78.91
41260;BME280;26993;48.958;9.330;2022-07-29T06:27:03;98242.84;;;21.84;79.64
41260;BME280;26993;48.958;9.330;2022-07-29T06:29:50;98252.16;;;21.54;78.24
41260;BME280;26993;48.958;9.330;2022-07-29T06:32:38;98248.91;;;21.32;79.17
41260;BME280;26993;48.958;9.330;2022-07-29T06:35:24;98247.56;;;21.23;81.41
41260;BME280;26993;48.958;9.330;2022-07-29T06:38:11;98248.41;;;21.60;79.41
41260;BME280;26993;48.958;9.330;2022-07-29T06:40:58;98247.84;;;21.71;78.93
41260;BME280;26993;48.958;9.330;2022-07-29T06:43:49;98250.25;;;21.76;79.90
41260;BME280;26993;48.958;9.330;2022-07-29T06:46:36;98254.66;;;21.93;78.57
41260;BME280;26993;48.958;9.330;2022-07-29T06:49:24;98262.34;;;21.78;78.86
41260;BME280;26993;48.958;9.330;2022-07-29T06:52:11;98254.19;;;21.67;79.66
41260;BME280;26993;48.958;9.330;2022-07-29T06:54:58;98257.09;;;21.78;79.39
41260;BME280;26993;48.958;9.330;2022-07-29T06:57:45;98264.63;;;21.49;79.52
41260;BME280;26993;48.958;9.330;2022-07-29T07:00:31;98258.75;;;21.63;79.71
41260;BME280;26993;48.958;9.330;2022-07-29T07:03:18;98264.13;;;21.60;80.26
41260;BME280;26993;48.958;9.330;2022-07-29T07:06:06;98262.69;;;21.53;79.67
41260;BME280;26993;48.958;9.330;2022-07-29T07:08:53;98270.53;;;21.72;79.19
41260;BME280;26993;48.958;9.330;2022-07-29T07:11:40;98265.44;;;21.86;78.96
41260;BME280;26993;48.958;9.330;2022-07-29T07:14:26;98264.97;;;21.96;78.68
41260;BME280;26993;48.958;9.330;2022-07-29T07:17:13;98261.69;;;22.08;78.78
41260;BME280;26993;48.958;9.330;2022-07-29T07:20:00;98265.66;;;22.17;77.77
41260;BME280;26993;48.958;9.330;2022-07-29T07:22:48;98260.44;;;22.33;76.64
41260;BME280;26993;48.958;9.330;2022-07-29T07:25:35;98255.50;;;22.60;75.83
41260;BME280;26993;48.958;9.330;2022-07-29T07:28:21;98255.50;;;22.60;75.50
41260;BME280;26993;48.958;9.330;2022-07-29T07:31:08;98261.63;;;22.93;76.03
41260;BME280;26993;48.958;9.330;2022-07-29T07:33:55;98259.69;;;22.96;74.66
41260;BME280;26993;48.958;9.330;2022-07-29T07:36:42;98257.91;;;22.97;74.38
41260;BME280;26993;48.958;9.330;2022-07-29T07:39:30;98263.97;;;23.13;72.71
41260;BME280;26993;48.958;9.330;2022-07-29T07:42:16;98262.22;;;23.30;72.76
41260;BME280;26993;48.958;9.330;2022-07-29T07:45:04;98261.75;;;23.54;71.83
41260;BME280;26993;48.958;9.330;2022-07-29T07:47:51;98258.09;;;23.56;72.25
41260;BME280;26993;48.958;9.330;2022-07-29T07:50:37;98267.28;;;23.49;71.89
41260;BME280;26993;48.958;9.330;2022-07-29T07:53:24;98259.44;;;23.17;72.17
41260;BME280;26993;48.958;9.330;2022-07-29T07:56:12;98261.13;;;23.34;72.74
41260;BME280;26993;48.958;9.330;2022-07-29T07:58:59;98260.72;;;23.56;72.14
41260;BME280;26993;48.958;9.330;2022-07-29T08:01:45;98261.03;;;23.66;71.22
41260;BME280;26993;48.958;9.330;2022-07-29T08:04:32;98252.78;;;23.87;72.81
41260;BME280;26993;48.958;9.330;2022-07-29T08:07:19;98250.97;;;24.03;70.83
41260;BME280;26993;48.958;9.330;2022-07-29T08:10:07;98260.47;;;24.20;70.52
41260;BME280;26993;48.958;9.330;2022-07-29T08:12:55;98265.09;;;24.31;70.12
41260;BME280;26993;48.958;9.330;2022-07-29T08:15:42;98257.41;;;24.43;69.44
41260;BME280;26993;48.958;9.330;2022-07-29T08:18:30;98263.59;;;24.56;67.54
41260;BME280;26993;48.958;9.330;2022-07-29T08:21:17;98267.75;;;24.46;68.22
41260;BME280;26993;48.958;9.330;2022-07-29T08:24:05;98261.25;;;24.37;68.82
41260;BME280;26993;48.958;9.330;2022-07-29T08:27:09;98262.38;;;24.47;67.53
41260;BME280;26993;48.958;9.330;2022-07-29T08:29:57;98263.41;;;24.59;68.31
41260;BME280;26993;48.958;9.330;2022-07-29T08:32:44;98267.09;;;24.71;68.35
41260;BME280;26993;48.958;9.330;2022-07-29T08:35:30;98268.56;;;24.90;67.53
41260;BME280;26993;48.958;9.330;2022-07-29T08:38:17;98273.34;;;24.97;67.50
41260;BME280;26993;48.958;9.330;2022-07-29T08:41:04;98274.50;;;24.79;65.57
41260;BME280;26993;48.958;9.330;2022-07-29T08:43:51;98274.13;;;24.70;65.70
41260;BME280;26993;48.958;9.330;2022-07-29T08:46:39;98270.75;;;25.10;65.86
41260;BME280;26993;48.958;9.330;2022-07-29T08:49:26;98269.03;;;25.24;65.00
41260;BME280;26993;48.958;9.330;2022-07-29T08:52:13;98266.72;;;25.46;64.57
41260;BME280;26993;48.958;9.330;2022-07-29T08:55:01;98268.06;;;25.25;64.52
41260;BME280;26993;48.958;9.330;2022-07-29T08:57:48;98274.28;;;25.38;64.88
41260;BME280;26993;48.958;9.330;2022-07-29T09:00:36;98264.66;;;25.37;64.37
41260;BME280;26993;48.958;9.330;2022-07-29T09:03:30;98271.47;;;25.54;62.88
41260;BME280;26993;48.958;9.330;2022-07-29T09:06:18;98265.22;;;25.42;63.83
41260;BME280;26993;48.958;9.330;2022-07-29T09:09:07;98269.47;;;25.30;64.93
41260;BME280;26993;48.958;9.330;2022-07-29T09:11:54;98263.91;;;25.62;63.04
41260;BME280;26993;48.958;9.330;2022-07-29T09:14:41;98270.78;;;25.78;62.59
41260;BME280;26993;48.958;9.330;2022-07-29T09:17:41;98268.44;;;25.06;64.73
41260;BME280;26993;48.958;9.330;2022-07-29T09:20:29;98267.28;;;25.10;64.62
41260;BME280;26993;48.958;9.330;2022-07-29T09:23:36;98270.31;;;25.03;65.07
41260;BME280;26993;48.958;9.330;2022-07-29T09:26:28;98275.06;;;25.11;64.26
41260;BME280;26993;48.958;9.330;2022-07-29T09:29:16;98272.22;;;25.56;63.95
41260;BME280;26993;48.958;9.330;2022-07-29T09:32:06;98264.63;;;25.52;63.45
41260;BME280;26993;48.958;9.330;2022-07-29T09:35:18;98258.97;;;25.96;60.91
41260;BME280;26993;48.958;9.330;2022-07-29T09:38:13;98254.25;;;26.15;60.41
41260;BME280;26993;48.958;9.330;2022-07-29T09:41:02;98249.59;;;26.44;59.69
41260;BME280;26993;48.958;9.330;2022-07-29T09:43:54;98251.47;;;26.55;59.63
41260;BME280;26993;48.958;9.330;2022-07-29T09:46:55;98246.94;;;26.44;59.49
41260;BME280;26993;48.958;9.330;2022-07-29T09:49:53;98247.38;;;26.38;60.05
41260;BME280;26993;48.958;9.330;2022-07-29T09:52:47;98244.28;;;26.57;59.65
41260;BME280;26993;48.958;9.330;2022-07-29T09:55:46;98244.97;;;26.72;60.20
41260;BME280;26993;48.958;9.330;2022-07-29T09:58:33;98244.53;;;26.91;58.37
41260;BME280;26993;48.958;9.330;2022-07-29T10:01:27;98245.13;;;26.57;59.82
41260;BME280;26993;48.958;9.330;2022-07-29T10:04:14;98251.56;;;27.03;58.86
41260;BME280;26993;48.958;9.330;2022-07-29T10:07:02;98243.25;;;27.21;57.35
41260;BME280;26993;48.958;9.330;2022-07-29T10:09:53;98241.91;;;27.15;57.19
41260;BME280;26993;48.958;9.330;2022-07-29T10:12:51;98249.63;;;27.18;58.30
41260;BME280;26993;48.958;9.330;2022-07-29T10:15:39;98244.94;;;27.22;57.04
41260;BME280;26993;48.958;9.330;2022-07-29T10:18:29;98247.13;;;27.52;56.80
41260;BME280;26993;48.958;9.330;2022-07-29T10:21:16;98252.53;;;27.51;56.27
41260;BME280;26993;48.958;9.330;2022-07-29T10:24:04;98240.88;;;27.29;56.34
41260;BME280;26993;48.958;9.330;2022-07-29T10:26:51;98233.53;;;27.46;55.94
41260;BME280;26993;48.958;9.330;2022-07-29T10:29:40;98232.31;;;27.14;56.24
41260;BME280;26993;48.958;9.330;2022-07-29T10:32:39;98236.06;;;26.99;56.60
41260;BME280;26993;48.958;9.330;2022-07-29T10:35:51;98238.09;;;26.95;57.73
41260;BME280;26993;48.958;9.330;2022-07-29T10:38:49;98225.41;;;27.12;57.98
41260;BME280;26993;48.958;9.330;2022-07-29T10:45:05;98229.00;;;27.11;56.74
41260;BME280;26993;48.958;9.330;2022-07-29T10:48:03;98229.66;;;27.14;57.32
41260;BME280;26993;48.958;9.330;2022-07-29T10:50:55;98224.91;;;27.06;56.61
41260;BME280;26993;48.958;9.330;2022-07-29T10:53:49;98214.91;;;26.99;56.22
41260;BME280;26993;48.958;9.330;2022-07-29T10:56:36;98222.47;;;26.79;57.18
41260;BME280;26993;48.958;9.330;2022-07-29T10:59:25;98217.97;;;26.92;55.59
41260;BME280;26993;48.958;9.330;2022-07-29T11:02:45;98217.94;;;26.68;56.73
41260;BME280;26993;48.958;9.330;2022-07-29T11:05:54;98219.31;;;26.74;55.83
41260;BME280;26993;48.958;9.330;2022-07-29T11:08:41;98218.88;;;26.67;56.51
41260;BME280;26993;48.958;9.330;2022-07-29T11:11:31;98221.78;;;26.64;54.69
41260;BME280;26993;48.958;9.330;2022-07-29T11:14:56;98230.28;;;26.43;56.23
41260;BME280;26993;48.958;9.330;2022-07-29T11:18:04;98221.66;;;26.53;56.15
41260;BME280;26993;48.958;9.330;2022-07-29T11:20:52;98216.00;;;26.46;56.80
41260;BME280;26993;48.958;9.330;2022-07-29T11:23:39;98213.38;;;26.33;56.67
41260;BME280;26993;48.958;9.330;2022-07-29T11:26:27;98208.69;;;26.50;56.19
41260;BME280;26993;48.958;9.330;2022-07-29T11:29:19;98205.59;;;26.69;55.97
41260;BME280;26993;48.958;9.330;2022-07-29T11:32:12;98210.41;;;26.51;56.70
41260;BME280;26993;48.958;9.330;2022-07-29T11:35:16;98219.50;;;26.34;57.17
41260;BME280;26993;48.958;9.330;2022-07-29T11:38:25;98229.44;;;26.30;57.47
41260;BME280;26993;48.958;9.330;2022-07-29T11:41:30;98227.22;;;26.24;57.41
41260;BME280;26993;48.958;9.330;2022-07-29T11:44:54;98228.38;;;26.07;57.65
41260;BME280;26993;48.958;9.330;2022-07-29T11:47:47;98227.41;;;25.95;57.29
41260;BME280;26993;48.958;9.330;2022-07-29T11:50:37;98228.28;;;26.08;57.41
41260;BME280;26993;48.958;9.330;2022-07-29T11:53:24;98224.75;;;26.47;58.94
41260;BME280;26993;48.958;9.330;2022-07-29T11:56:12;98216.66;;;26.37;56.62
41260;BME280;26993;48.958;9.330;2022-07-29T11:59:03;98205.75;;;26.91;56.81
41260;BME280;26993;48.958;9.330;2022-07-29T12:01:52;98202.31;;;27.02;55.95
41260;BME280;26993;48.958;9.330;2022-07-29T12:04:48;98203.66;;;27.08;57.45
41260;BME280;26993;48.958;9.330;2022-07-29T12:07:37;98211.88;;;26.92;54.95
41260;BME280;26993;48.958;9.330;2022-07-29T12:10:30;98211.03;;;26.91;55.27
41260;BME280;26993;48.958;9.330;2022-07-29T12:13:18;98202.03;;;27.30;54.85
41260;BME280;26993;48.958;9.330;2022-07-29T12:16:05;98200.91;;;27.10;55.55
41260;BME280;26993;48.958;9.330;2022-07-29T12:18:56;98193.72;;;27.47;55.47
41260;BME280;26993;48.958;9.330;2022-07-29T12:21:44;98192.09;;;27.69;55.62
41260;BME280;26993;48.958;9.330;2022-07-29T12:24:44;98201.25;;;27.40;56.68
41260;BME280;26993;48.958;9.330;2022-07-29T12:27:31;98201.81;;;27.33;56.67
41260;BME280;26993;48.958;9.330;2022-07-29T12:30:18;98208.50;;;27.14;58.55
41260;BME280;26993;48.958;9.330;2022-07-29T12:33:17;98198.59;;;26.81;60.06
41260;BME280;26993;48.958;9.330;2022-07-29T12:36:07;98196.59;;;26.34;60.87
41260;BME280;26993;48.958;9.330;2022-07-29T12:38:54;98200.88;;;26.48;59.84
41260;BME280;26993;48.958;9.330;2022-07-29T12:41:42;98203.75;;;26.45;59.06
41260;BME280;26993;48.958;9.330;2022-07-29T12:44:43;98203.66;;;26.34;60.37
41260;BME280;26993;48.958;9.330;2022-07-29T12:47:30;98209.28;;;26.16;60.11
41260;BME280;26993;48.958;9.330;2022-07-29T12:50:17;98203.88;;;26.31;58.96
41260;BME280;26993;48.958;9.330;2022-07-29T12:53:11;98195.16;;;26.54;58.69
41260;BME280;26993;48.958;9.330;2022-07-29T12:55:59;98194.03;;;26.83;57.70
41260;BME280;26993;48.958;9.330;2022-07-29T12:58:49;98198.81;;;26.78;58.82
41260;BME280;26993;48.958;9.330;2022-07-29T13:01:36;98195.81;;;27.31;60.26
41260;BME280;26993;48.958;9.330;2022-07-29T13:04:27;98196.66;;;27.67;57.56
41260;BME280;26993;48.958;9.330;2022-07-29T13:07:24;98203.97;;;27.63;58.09
41260;BME280;26993;48.958;9.330;2022-07-29T13:10:13;98208.44;;;27.63;57.26
41260;BME280;26993;48.958;9.330;2022-07-29T13:13:05;98214.66;;;27.26;56.73
41260;BME280;26993;48.958;9.330;2022-07-29T13:16:07;98214.56;;;27.03;56.31
41260;BME280;26993;48.958;9.330;2022-07-29T13:19:11;98224.69;;;27.10;56.11
41260;BME280;26993;48.958;9.330;2022-07-29T13:21:58;98229.66;;;26.77;57.36
41260;BME280;26993;48.958;9.330;2022-07-29T13:24:46;98237.34;;;26.30;58.81
41260;BME280;26993;48.958;9.330;2022-07-29T13:27:34;98246.97;;;26.18;55.92
41260;BME280;26993;48.958;9.330;2022-07-29T13:30:22;98243.19;;;26.22;54.46
41260;BME280;26993;48.958;9.330;2022-07-29T13:33:10;98240.16;;;25.88;54.70
41260;BME280;26993;48.958;9.330;2022-07-29T13:35:57;98240.41;;;26.11;55.87
41260;BME280;26993;48.958;9.330;2022-07-29T13:38:44;98238.19;;;26.43;51.75
41260;BME280;26993;48.958;9.330;2022-07-29T14:52:07;98225.25;;;24.66;66.60
41260;BME280;26993;48.958;9.330;2022-07-29T14:54:53;98221.56;;;24.69;65.68
41260;BME280;26993;48.958;9.330;2022-07-29T14:57:40;98221.81;;;24.79;66.59
41260;BME280;26993;48.958;9.330;2022-07-29T15:00:27;98222.22;;;25.00;65.47
41260;BME280;26993;48.958;9.330;2022-07-29T15:03:17;98226.28;;;25.06;65.14
41260;BME280;26993;48.958;9.330;2022-07-29T15:06:04;98233.19;;;24.94;66.10
41260;BME280;26993;48.958;9.330;2022-07-29T15:08:52;98231.47;;;25.20;65.21
41260;BME280;26993;48.958;9.330;2022-07-29T15:11:40;98233.38;;;25.18;64.70
41260;BME280;26993;48.958;9.330;2022-07-29T15:14:26;98226.22;;;25.20;65.61
41260;BME280;26993;48.958;9.330;2022-07-29T15:17:13;98227.88;;;25.21;64.21
41260;BME280;26993;48.958;9.330;2022-07-29T15:20:00;98229.44;;;25.11;65.33
41260;BME280;26993;48.958;9.330;2022-07-29T15:22:47;98225.56;;;25.16;63.95
41260;BME280;26993;48.958;9.330;2022-07-29T15:25:35;98234.13;;;25.20;64.11
41260;BME280;26993;48.958;9.330;2022-07-29T15:28:22;98234.84;;;25.49;62.52
41260;BME280;26993;48.958;9.330;2022-07-29T15:31:09;98228.66;;;25.63;62.52
41260;BME280;26993;48.958;9.330;2022-07-29T15:33:55;98232.75;;;25.55;63.34
41260;BME280;26993;48.958;9.330;2022-07-29T15:36:42;98226.31;;;25.59;62.48
41260;BME280;26993;48.958;9.330;2022-07-29T15:39:29;98231.78;;;25.43;62.91
41260;BME280;26993;48.958;9.330;2022-07-29T15:42:17;98234.31;;;25.44;63.95
41260;BME280;26993;48.958;9.330;2022-07-29T15:45:05;98232.16;;;25.37;65.50
41260;BME280;26993;48.958;9.330;2022-07-29T15:47:51;98232.31;;;25.48;63.44
41260;BME280;26993;48.958;9.330;2022-07-29T15:50:38;98232.13;;;25.64;62.90
41260;BME280;26993;48.958;9.330;2022-07-29T15:53:25;98238.75;;;25.29;65.39
41260;BME280;26993;48.958;9.330;2022-07-29T15:56:11;98236.41;;;25.12;65.44
41260;BME280;26993;48.958;9.330;2022-07-29T15:59:00;98235.44;;;25.40;64.42
41260;BME280;26993;48.958;9.330;2022-07-29T16:01:46;98238.00;;;25.42;64.97
41260;BME280;26993;48.958;9.330;2022-07-29T16:04:33;98229.16;;;25.28;64.57
41260;BME280;26993;48.958;9.330;2022-07-29T16:07:20;98227.38;;;25.56;63.34
41260;BME280;26993;48.958;9.330;2022-07-29T16:10:07;98230.44;;;25.63;62.34
41260;BME280;26993;48.958;9.330;2022-07-29T16:12:54;98226.03;;;25.63;63.03